メインページ
METAR-TAF:

METAR-TAF

空港 :

インディラ・ガンディー国際空港

ニューデリー, インド

緯度: 28-34N, 経度: 077-07E, 海抜: 220m

現時点の気象観測

当レポートは42分前の11:30(UTC)に作成
東/北東の風 7kt
気温 45°C
湿度 10%
気圧 1002 hPa
視程: 4000m
煙霧

METAR: VIDP 221130Z 07007KT 4000 HZ NSC 45/07 Q1002 NOSIG

時間: 17:42 (12:12 UTC)

予報

当レポートは1時間12分前の11:00(UTC)に作成
予報は22日の 12時(UTC)から 23日の 18時(UTC)まで有効
北東の風 6kt
視程: 4000m
煙霧
22日の 18時(UTC)から 22日の 20時(UTC)まで徐々に
変向風 2kt
視程: 3000m
煙霧
23日の 05時(UTC)から 23日の 07時(UTC)まで徐々に
の風 5kt、最大15ktの突風を伴う
視程: 4000m
高度4000ftの雲はほとんどない
高度10000ftの雲は散在している
煙霧, 広範な塵

TAF: VIDP 221100Z 2212/2318 04006KT 4000 HZ NSC BECMG 2218/2220 VRB02KT 3000 HZ NSC BECMG 2305/2307 35005G15KT 4000 HZ DU FEW040 SCT100

4,000以上の空港の気象観測と天気予報(METAR報とTAF報)

利用可能な観測所は地図上に黄色い丸と赤い丸で示す。

丸の上にカーソルを重ねると観測所名を参照できる。

次にクリックすると気象観測と天気予報を参照できる。

マップの切り替え:黒色「×」印の緑ボタンをクリックして拡大、「-」印の緑ボタンをクリックして縮小、緑色の三角印をクリックして隣りの地図に切り替え


METAR-TAF: